Time;durP1;ratioP1;P1;durP2;ratioP2;P2;SDS_P1;SDS_P2;PMS_P1;PMS_P2;Temp;Humidity;BMP_temperature;BMP_pressure;BME280_temperature;BME280_humidity;BME280_pressure;Samples;Min_cycle;Max_cycle;Signal;HPM_P1;HPM_P2
2021/09/23 00:01:13;;;;;;;32.03;16.88;;;;;;;9.46;74.34;99607.28;5061904;28;20032;-62
2021/09/23 00:06:25;;;;;;;35.47;17.35;;;;;;;9.48;74.20;99616.00;5055183;28;20044;-63
2021/09/23 00:08:51;;;;;;;30.38;15.68;;;;;;;9.41;74.01;99610.31;5064581;28;20040;-63
2021/09/23 00:11:17;;;;;;;27.85;15.68;;;;;;;9.46;74.32;99613.44;5061338;28;20481;-62
2021/09/23 00:13:42;;;;;;;32.03;15.45;;;;;;;9.50;73.84;99619.41;5057180;28;20025;-65
2021/09/23 00:16:08;;;;;;;32.17;15.40;;;;;;;9.49;74.04;99615.03;5068287;28;20024;-63
2021/09/23 00:18:33;;;;;;;26.48;14.95;;;;;;;9.53;73.90;99624.50;5055202;28;20028;-62
2021/09/23 00:21:02;;;;;;;29.70;15.00;;;;;;;9.61;72.94;99619.38;5045614;28;20045;-62
2021/09/23 00:23:29;;;;;;;26.23;13.10;;;;;;;9.46;74.45;99620.63;5063199;28;20044;-62
2021/09/23 00:26:00;;;;;;;26.80;13.00;;;;;;;9.38;74.27;99631.06;5055376;28;20734;-62
2021/09/23 00:28:25;;;;;;;26.65;13.00;;;;;;;9.20;74.61;99583.47;5071349;28;20063;-62
2021/09/23 00:30:51;;;;;;;28.30;13.80;;;;;;;9.41;74.15;99618.31;5064329;28;20025;-62
2021/09/23 00:33:17;;;;;;;27.33;12.77;;;;;;;9.43;74.22;99621.72;5062208;28;20043;-62
2021/09/23 00:35:42;;;;;;;22.33;11.93;;;;;;;9.41;74.57;99621.00;5068870;28;20040;-61
2021/09/23 00:38:08;;;;;;;26.08;12.65;;;;;;;9.36;74.70;99608.94;5036623;28;20033;-63
2021/09/23 00:40:33;;;;;;;23.52;12.73;;;;;;;9.55;73.65;99614.53;5066699;28;20202;-63
2021/09/23 00:42:59;;;;;;;24.00;12.13;;;;;;;9.41;74.39;99620.16;5059503;28;20454;-63
2021/09/23 00:45:25;;;;;;;23.13;11.35;;;;;;;9.37;74.38;99616.88;5059022;28;20021;-62
2021/09/23 00:47:50;;;;;;;27.17;12.85;;;;;;;9.31;73.94;99602.16;5066207;28;20029;-62
2021/09/23 00:50:18;;;;;;;25.25;13.38;;;;;;;9.38;74.20;99615.03;5055135;28;20428;-62
2021/09/23 00:52:43;;;;;;;25.52;11.65;;;;;;;9.42;74.26;99612.00;5065336;28;20025;-63
2021/09/23 00:55:11;;;;;;;27.70;14.18;;;;;;;9.33;74.39;99605.56;5059302;28;20353;-62
2021/09/23 00:57:37;;;;;;;26.38;13.07;;;;;;;9.25;74.64;99616.00;5056390;28;20037;-62
2021/09/23 01:00:07;;;;;;;26.25;13.90;;;;;;;9.24;74.95;99608.09;5050091;28;20039;-63
2021/09/23 01:02:32;;;;;;;32.95;15.27;;;;;;;9.31;74.58;99604.84;5055584;28;20315;-63
2021/09/23 01:04:58;;;;;;;27.73;14.40;;;;;;;9.31;74.14;99622.69;5062361;28;20414;-63
2021/09/23 01:07:23;;;;;;;28.50;14.05;;;;;;;9.00;74.74;99575.19;5047857;28;20547;-63
2021/09/23 01:09:51;;;;;;;29.23;15.32;;;;;;;9.03;75.44;99579.44;5061018;28;20039;-64
2021/09/23 01:12:19;;;;;;;31.67;14.43;;;;;;;9.17;75.76;99610.44;5054349;28;20428;-63
2021/09/23 01:14:45;;;;;;;28.95;14.27;;;;;;;9.21;75.62;99603.88;5062477;28;20032;-63
2021/09/23 01:17:11;;;;;;;30.60;15.25;;;;;;;9.19;75.81;99611.16;5036044;28;20055;-63
2021/09/23 01:19:38;;;;;;;28.13;14.68;;;;;;;9.24;75.52;99595.59;5030083;28;20060;-63
2021/09/23 01:22:05;;;;;;;30.55;14.45;;;;;;;9.15;76.29;99582.97;5047697;28;20044;-63
2021/09/23 01:24:30;;;;;;;29.73;15.52;;;;;;;9.18;76.57;99575.56;5066130;28;20033;-62
2021/09/23 01:26:56;;;;;;;30.85;14.45;;;;;;;9.24;76.55;99587.59;5041517;28;20043;-62
2021/09/23 01:29:22;;;;;;;27.67;14.50;;;;;;;9.33;76.67;99589.53;5038895;28;20059;-63
2021/09/23 01:31:48;;;;;;;30.48;15.30;;;;;;;9.37;75.98;99575.91;5051482;28;20030;-62
2021/09/23 01:34:13;;;;;;;29.35;14.70;;;;;;;9.42;76.00;99585.28;5040969;28;20025;-64
2021/09/23 01:36:40;;;;;;;26.40;14.30;;;;;;;9.46;75.81;99580.53;5065153;28;20024;-63
2021/09/23 01:39:05;;;;;;;33.47;14.90;;;;;;;9.48;76.03;99573.25;5059578;28;20035;-63
2021/09/23 01:41:31;;;;;;;29.48;14.27;;;;;;;9.38;75.62;99540.22;5058102;28;20029;-62
2021/09/23 01:43:56;;;;;;;29.85;15.35;;;;;;;9.45;75.22;99554.81;5065621;28;20127;-64
2021/09/23 01:46:22;;;;;;;34.45;15.25;;;;;;;9.59;74.76;99573.22;5053778;28;20831;-64
2021/09/23 01:48:47;;;;;;;29.98;14.70;;;;;;;9.57;74.38;99561.81;5045726;28;20032;-62
2021/09/23 01:51:13;;;;;;;33.25;15.63;;;;;;;9.51;75.20;99573.00;5058799;28;20023;-62
2021/09/23 01:53:38;;;;;;;33.47;15.68;;;;;;;9.40;75.81;99570.31;5055152;28;20048;-63
2021/09/23 01:56:04;;;;;;;28.63;14.88;;;;;;;9.36;76.10;99569.75;5066397;28;20020;-63
2021/09/23 01:58:29;;;;;;;29.92;14.70;;;;;;;9.30;76.74;99568.41;5040284;28;20021;-62
2021/09/23 02:00:55;;;;;;;33.33;15.60;;;;;;;9.32;76.90;99563.78;5062304;28;20029;-63
2021/09/23 02:03:20;;;;;;;31.50;14.77;;;;;;;9.38;76.64;99556.25;5039727;28;20664;-64
2021/09/23 02:05:46;;;;;;;31.15;15.02;;;;;;;9.42;76.76;99557.72;5056219;28;20128;-63
2021/09/23 02:08:11;;;;;;;34.63;14.98;;;;;;;9.46;76.53;99561.84;5048681;28;20138;-62
2021/09/23 02:10:37;;;;;;;31.15;13.98;;;;;;;9.44;76.83;99561.94;5045997;28;20037;-61
2021/09/23 02:13:02;;;;;;;31.88;15.65;;;;;;;9.47;76.66;99561.69;5045851;28;20020;-63
2021/09/23 02:15:28;;;;;;;29.55;14.85;;;;;;;9.54;75.76;99550.53;5057540;28;20039;-62
2021/09/23 02:17:53;;;;;;;32.70;15.13;;;;;;;9.59;75.56;99556.34;5065557;28;20380;-62
2021/09/23 02:20:19;;;;;;;30.92;14.00;;;;;;;9.42;76.23;99555.06;5053458;28;20029;-62
2021/09/23 02:22:45;;;;;;;28.60;14.57;;;;;;;9.39;77.16;99553.47;5062417;28;20465;-62
2021/09/23 02:25:11;;;;;;;28.70;13.90;;;;;;;9.36;77.20;99548.38;5059457;28;20032;-64
2021/09/23 02:27:37;;;;;;;28.23;14.05;;;;;;;9.17;77.44;99511.59;5057745;28;20108;-62
2021/09/23 02:30:04;;;;;;;27.23;13.57;;;;;;;9.46;77.80;99543.13;5069510;28;20487;-63
2021/09/23 02:32:30;;;;;;;26.13;13.10;;;;;;;9.52;77.69;99541.78;5057972;28;20056;-63
2021/09/23 02:34:57;;;;;;;25.40;13.25;;;;;;;9.55;77.26;99537.03;5070782;28;20039;-64
2021/09/23 02:37:23;;;;;;;29.13;13.65;;;;;;;9.57;76.71;99535.09;5062984;28;20029;-62
2021/09/23 02:39:49;;;;;;;27.10;13.43;;;;;;;9.61;76.14;99530.34;5068731;28;20032;-62
2021/09/23 02:42:14;;;;;;;25.08;12.50;;;;;;;9.69;76.16;99537.75;5056897;28;20035;-62
2021/09/23 02:44:40;;;;;;;24.92;12.15;;;;;;;9.58;76.64;99536.78;5068391;28;20388;-62
2021/09/23 02:47:06;;;;;;;23.85;12.20;;;;;;;9.60;76.88;99542.84;5062904;28;20029;-63
2021/09/23 02:49:31;;;;;;;29.20;13.00;;;;;;;9.74;76.13;99535.53;5060734;28;20461;-63
2021/09/23 02:51:58;;;;;;;21.50;11.68;;;;;;;9.57;77.15;99539.59;5067811;28;20059;-63
2021/09/23 02:54:24;;;;;;;21.73;11.73;;;;;;;9.50;77.44;99527.69;5053312;28;20112;-62
2021/09/23 02:56:49;;;;;;;24.05;11.57;;;;;;;9.54;77.72;99532.66;5043624;28;20103;-62
2021/09/23 02:59:14;;;;;;;23.88;11.95;;;;;;;9.55;77.67;99529.00;5046653;28;20029;-62
2021/09/23 03:01:40;;;;;;;23.45;11.25;;;;;;;9.67;77.25;99539.69;5060751;28;20112;-59
2021/09/23 03:04:05;;;;;;;20.52;10.25;;;;;;;9.69;77.08;99535.06;5054648;28;20037;-61
2021/09/23 03:06:31;;;;;;;18.45;9.80;;;;;;;9.66;77.10;99528.16;5050066;28;20049;-59
2021/09/23 03:08:56;;;;;;;18.90;9.98;;;;;;;9.73;77.00;99528.50;5047286;28;20037;-62
2021/09/23 03:11:22;;;;;;;18.77;9.63;;;;;;;9.74;77.64;99536.38;5061604;28;20116;-64
2021/09/23 03:13:47;;;;;;;18.23;8.98;;;;;;;9.77;77.09;99545.97;5066448;28;20529;-63
2021/09/23 03:16:13;;;;;;;16.73;9.40;;;;;;;9.82;77.09;99535.75;5055780;28;20060;-63
2021/09/23 03:18:38;;;;;;;17.17;9.80;;;;;;;9.87;76.67;99532.72;5066281;28;20036;-64
2021/09/23 03:21:04;;;;;;;16.88;9.15;;;;;;;9.87;77.15;99525.50;5061602;28;20036;-62
2021/09/23 03:23:30;;;;;;;15.52;8.98;;;;;;;9.98;75.89;99540.69;5042475;28;20040;-63
2021/09/23 03:25:55;;;;;;;17.33;9.32;;;;;;;9.91;76.57;99543.03;5069038;28;20374;-61
2021/09/23 03:28:21;;;;;;;16.65;8.93;;;;;;;9.90;76.63;99536.00;5055140;28;20042;-62
2021/09/23 03:30:47;;;;;;;15.38;9.10;;;;;;;9.71;76.74;99501.03;5065804;28;20029;-62
2021/09/23 03:33:13;;;;;;;16.35;8.45;;;;;;;9.95;76.12;99534.75;5062712;28;20031;-63
2021/09/23 03:35:38;;;;;;;14.80;8.55;;;;;;;9.93;76.43;99534.88;5071873;28;20531;-62
2021/09/23 03:38:05;;;;;;;14.93;8.27;;;;;;;9.93;75.92;99539.38;5055305;28;20032;-63
2021/09/23 03:40:31;;;;;;;14.80;7.50;;;;;;;9.89;76.82;99528.06;5067329;28;20036;-63
2021/09/23 03:42:57;;;;;;;12.18;7.20;;;;;;;9.93;76.96;99539.38;5058677;28;20069;-63
2021/09/23 03:45:23;;;;;;;12.43;6.68;;;;;;;9.87;76.83;99520.16;5059228;28;20025;-64
2021/09/23 03:47:50;;;;;;;12.02;7.28;;;;;;;9.94;77.17;99535.72;5067160;28;20468;-64
2021/09/23 03:50:16;;;;;;;9.35;6.55;;;;;;;9.91;76.68;99529.66;5037905;28;20485;-64
2021/09/23 03:52:42;;;;;;;7.82;4.45;;;;;;;9.94;76.82;99546.44;5066518;28;20033;-63
2021/09/23 03:55:08;;;;;;;8.00;5.07;;;;;;;9.69;76.64;99506.50;5060112;28;20119;-63
2021/09/23 03:57:34;;;;;;;6.97;4.53;;;;;;;9.83;77.04;99540.13;5059026;28;20143;-62
2021/09/23 04:00:00;;;;;;;7.90;4.68;;;;;;;9.84;77.23;99536.47;5068803;28;20464;-62
2021/09/23 04:02:26;;;;;;;7.95;4.38;;;;;;;9.81;77.49;99541.25;5055672;28;20081;-64
2021/09/23 04:04:51;;;;;;;6.20;4.07;;;;;;;9.77;77.42;99536.16;5029699;28;20465;-63
2021/09/23 04:07:17;;;;;;;7.72;4.13;;;;;;;9.65;77.41;99505.06;5061334;28;20056;-63
2021/09/23 04:09:42;;;;;;;6.03;4.55;;;;;;;9.73;77.64;99525.81;5057277;28;20033;-63
2021/09/23 04:12:08;;;;;;;11.02;4.72;;;;;;;9.54;78.00;99481.06;5066936;28;20449;-63
2021/09/23 04:14:34;;;;;;;11.23;4.55;;;;;;;9.82;78.76;99510.84;5056266;28;20020;-64
2021/09/23 04:17:00;;;;;;;8.50;4.72;;;;;;;9.85;78.25;99511.44;5063820;28;20083;-63
2021/09/23 04:19:27;;;;;;;7.55;4.28;;;;;;;9.86;78.44;99518.47;5063488;28;20036;-63
2021/09/23 04:21:52;;;;;;;7.10;4.50;;;;;;;9.91;78.13;99520.78;5056134;28;20037;-63
2021/09/23 04:24:19;;;;;;;7.10;4.82;;;;;;;9.96;78.71;99510.53;5067206;28;20032;-63
2021/09/23 04:26:45;;;;;;;6.57;4.28;;;;;;;10.05;77.77;99516.94;5056320;28;20086;-64
2021/09/23 04:29:11;;;;;;;5.60;3.47;;;;;;;10.02;77.87;99507.38;5061051;28;20039;-63
2021/09/23 04:31:37;;;;;;;5.07;3.30;;;;;;;9.99;78.26;99506.78;5063578;28;20024;-62
2021/09/23 04:34:02;;;;;;;3.78;2.63;;;;;;;9.83;77.71;99475.94;5053939;28;20052;-64
2021/09/23 04:36:28;;;;;;;4.55;3.17;;;;;;;9.96;78.31;99488.31;5067371;28;20098;-64
2021/09/23 04:38:54;;;;;;;4.68;3.10;;;;;;;10.02;77.94;99490.47;5058479;28;20403;-63
2021/09/23 04:41:20;;;;;;;4.60;3.50;;;;;;;9.97;78.42;99490.84;5060944;28;20029;-62
2021/09/23 04:43:49;;;;;;;4.75;3.13;;;;;;;10.01;78.57;99499.47;5065704;28;20447;-62
2021/09/23 04:46:22;;;;;;;5.25;3.92;;;;;;;10.08;78.33;99497.97;5054428;28;20036;-62
2021/09/23 04:48:52;;;;;;;5.88;4.00;;;;;;;10.23;78.30;99506.53;5064907;28;20059;-62
2021/09/23 04:51:19;;;;;;;5.05;3.78;;;;;;;10.25;78.70;99501.91;5061463;28;20032;-62
2021/09/23 04:53:44;;;;;;;7.68;3.97;;;;;;;10.36;78.04;99497.47;5057059;28;20111;-62
2021/09/23 04:56:10;;;;;;;7.70;4.15;;;;;;;10.42;77.65;99505.00;5066200;28;20028;-63
2021/09/23 04:58:35;;;;;;;6.22;3.85;;;;;;;10.45;77.32;99502.91;5055485;28;20033;-63
2021/09/23 05:01:01;;;;;;;5.35;4.10;;;;;;;10.30;77.58;99480.97;5063372;28;20388;-63
2021/09/23 05:03:26;;;;;;;6.30;4.50;;;;;;;10.39;76.91;99479.34;5062631;28;20031;-64
2021/09/23 05:05:52;;;;;;;6.00;4.28;;;;;;;10.33;77.72;99474.47;5055040;28;20654;-64
2021/09/23 05:08:17;;;;;;;5.63;4.10;;;;;;;10.32;77.31;99467.44;5065573;28;20136;-65
2021/09/23 05:10:43;;;;;;;5.68;4.18;;;;;;;10.45;77.58;99497.56;5055959;28;20029;-63
2021/09/23 05:13:09;;;;;;;6.63;3.95;;;;;;;10.52;77.92;99491.69;5061859;28;20035;-64
2021/09/23 05:15:36;;;;;;;6.80;4.50;;;;;;;10.50;77.34;99477.59;5063392;28;20064;-64
2021/09/23 05:18:02;;;;;;;6.05;4.00;;;;;;;10.62;77.05;99480.06;5054320;28;20025;-64
2021/09/23 05:20:27;;;;;;;6.22;4.45;;;;;;;10.72;77.54;99485.47;5067629;28;20035;-63
2021/09/23 05:22:53;;;;;;;5.95;3.92;;;;;;;10.89;76.81;99483.16;5057061;28;20101;-64
2021/09/23 05:25:19;;;;;;;6.60;4.40;;;;;;;10.99;76.47;99485.88;5041425;28;20031;-63
2021/09/23 05:27:44;;;;;;;6.13;4.10;;;;;;;11.04;76.16;99492.50;5065027;28;20025;-65
2021/09/23 05:30:12;;;;;;;7.07;4.53;;;;;;;11.07;76.58;99496.75;5054894;28;20469;-64
2021/09/23 05:32:38;;;;;;;6.03;4.63;;;;;;;11.05;75.81;99490.69;5064462;28;20084;-64
2021/09/23 05:35:05;;;;;;;6.05;4.60;;;;;;;11.03;75.77;99495.31;5057414;28;20051;-64
2021/09/23 05:37:39;;;;;;;5.38;4.43;;;;;;;11.03;76.60;99485.44;5055647;28;20025;-64
2021/09/23 05:40:07;;;;;;;5.57;4.07;;;;;;;11.13;76.57;99500.72;5066582;28;20086;-64
2021/09/23 05:42:33;;;;;;;6.45;3.88;;;;;;;11.20;76.79;99491.16;5054508;28;20048;-63
2021/09/23 05:44:58;;;;;;;6.95;4.53;;;;;;;11.27;75.45;99486.94;5061534;28;20063;-63
2021/09/23 05:47:24;;;;;;;8.02;4.28;;;;;;;11.23;75.27;99482.84;5061108;28;20082;-64
2021/09/23 05:49:49;;;;;;;7.53;4.50;;;;;;;11.27;75.36;99491.47;5053759;28;20051;-64
2021/09/23 05:52:16;;;;;;;6.63;4.88;;;;;;;11.31;74.72;99480.31;5066711;28;20028;-63
2021/09/23 05:54:43;;;;;;;6.93;4.30;;;;;;;11.39;74.26;99484.97;5056298;28;20086;-63
2021/09/23 05:57:09;;;;;;;7.53;4.53;;;;;;;11.27;74.64;99475.38;5061017;28;20064;-64
2021/09/23 05:59:34;;;;;;;7.35;4.60;;;;;;;11.27;74.98;99492.28;5059889;28;20462;-64
2021/09/23 06:02:00;;;;;;;7.10;4.22;;;;;;;11.31;74.63;99482.97;5049665;28;20388;-63
2021/09/23 06:04:26;;;;;;;6.32;4.32;;;;;;;11.25;73.98;99480.84;5064838;28;20037;-64
2021/09/23 06:06:51;;;;;;;7.50;4.18;;;;;;;11.31;74.01;99492.88;5056723;28;20155;-64
2021/09/23 06:09:17;;;;;;;7.25;4.63;;;;;;;11.37;73.54;99497.69;5058441;28;20045;-64
2021/09/23 06:11:42;;;;;;;5.43;4.22;;;;;;;11.29;73.84;99493.00;5064955;28;20032;-64
2021/09/23 06:14:08;;;;;;;6.85;4.53;;;;;;;11.20;74.15;99497.34;5051891;28;20025;-64
2021/09/23 06:16:34;;;;;;;8.05;4.78;;;;;;;11.16;74.59;99484.38;5065424;28;20029;-64
2021/09/23 06:19:00;;;;;;;9.10;4.65;;;;;;;11.24;74.34;99481.84;5058561;28;20388;-64
2021/09/23 06:21:26;;;;;;;6.60;4.43;;;;;;;11.35;73.84;99488.94;5058517;28;20037;-63
2021/09/23 06:23:51;;;;;;;8.02;4.45;;;;;;;11.41;73.09;99491.06;5064605;28;20040;-64
2021/09/23 06:26:19;;;;;;;7.78;5.07;;;;;;;11.29;73.70;99479.59;5052362;28;20072;-65
2021/09/23 06:28:45;;;;;;;6.63;4.80;;;;;;;11.39;73.21;99487.66;5063314;28;20082;-63
2021/09/23 06:31:10;;;;;;;10.25;4.78;;;;;;;11.36;73.90;99489.78;5059672;28;20036;-64
2021/09/23 06:33:36;;;;;;;9.88;5.45;;;;;;;11.37;72.92;99475.41;5056469;28;20029;-64
2021/09/23 06:36:01;;;;;;;8.88;5.13;;;;;;;11.42;73.32;99484.69;5064780;28;20028;-63
2021/09/23 06:38:28;;;;;;;7.10;4.60;;;;;;;11.51;74.08;99485.72;5053824;28;20047;-63
2021/09/23 06:40:54;;;;;;;9.32;5.40;;;;;;;11.62;72.66;99487.44;5061300;28;20716;-65
2021/09/23 06:43:21;;;;;;;8.50;5.55;;;;;;;11.64;72.51;99488.13;5059309;28;20112;-66
2021/09/23 06:45:46;;;;;;;6.82;5.35;;;;;;;11.61;72.73;99491.97;5054982;28;20069;-65
2021/09/23 06:48:12;;;;;;;9.43;5.72;;;;;;;11.61;72.56;99491.97;5066496;28;20052;-64
2021/09/23 06:50:37;;;;;;;10.88;6.20;;;;;;;11.61;72.13;99489.28;5053369;28;20024;-66
2021/09/23 06:53:03;;;;;;;8.65;7.03;;;;;;;11.54;72.54;99492.66;5060984;28;20024;-67
2021/09/23 06:55:28;;;;;;;11.60;6.38;;;;;;;11.55;72.22;99484.44;5061394;28;20125;-67
2021/09/23 06:57:54;;;;;;;11.13;6.90;;;;;;;11.54;72.93;99487.28;5054105;28;20036;-66
2021/09/23 07:00:19;;;;;;;9.25;6.60;;;;;;;11.57;73.32;99482.47;5065895;28;20032;-67
2021/09/23 07:02:45;;;;;;;11.75;6.80;;;;;;;11.64;73.44;99488.13;5055402;28;20029;-65
2021/09/23 07:05:11;;;;;;;14.50;7.32;;;;;;;11.73;73.43;99473.03;5059982;28;20032;-64
2021/09/23 07:07:37;;;;;;;9.48;6.25;;;;;;;11.88;73.18;99478.84;5049255;28;20455;-62
2021/09/23 07:10:04;;;;;;;7.93;6.32;;;;;;;12.01;72.87;99468.72;5065823;28;20503;-63
2021/09/23 07:12:29;;;;;;;13.05;6.60;;;;;;;12.10;71.05;99461.66;5047033;28;20113;-59
2021/09/23 07:14:55;;;;;;;9.40;6.30;;;;;;;12.15;71.19;99463.88;5057281;28;20307;-62
2021/09/23 07:17:21;;;;;;;10.48;6.00;;;;;;;12.15;70.89;99469.25;5062842;28;20029;-60
2021/09/23 07:19:46;;;;;;;8.65;5.80;;;;;;;12.14;70.83;99472.91;5066484;28;20526;-62
2021/09/23 07:22:13;;;;;;;6.82;4.97;;;;;;;12.11;70.92;99479.44;5056720;28;20025;-64
2021/09/23 07:24:38;;;;;;;9.90;5.85;;;;;;;11.99;71.16;99478.72;5067775;28;20075;-63
2021/09/23 07:27:05;;;;;;;8.65;5.53;;;;;;;11.80;71.48;99466.13;5061831;28;20036;-61
2021/09/23 07:29:31;;;;;;;8.60;5.47;;;;;;;11.80;71.97;99470.66;5058835;28;20036;-62
2021/09/23 07:31:56;;;;;;;9.73;5.47;;;;;;;11.83;71.50;99467.69;5068945;28;20024;-62
2021/09/23 07:34:22;;;;;;;10.27;5.47;;;;;;;11.77;71.78;99466.41;5054457;28;20415;-62
2021/09/23 07:36:48;;;;;;;6.88;5.07;;;;;;;11.72;72.02;99471.34;5064870;28;20116;-62
2021/09/23 07:39:14;;;;;;;6.68;5.38;;;;;;;11.65;72.76;99464.84;5061690;28;20075;-62
2021/09/23 07:41:43;;;;;;;8.48;5.35;;;;;;;11.59;72.44;99443.00;5059067;28;20029;-63
2021/09/23 07:44:10;;;;;;;8.02;5.03;;;;;;;11.77;71.92;99469.09;5068827;28;20029;-62
2021/09/23 07:46:36;;;;;;;14.82;5.93;;;;;;;11.76;72.37;99467.41;5056026;28;20036;-59
2021/09/23 07:49:03;;;;;;;8.68;5.28;;;;;;;11.77;72.29;99463.72;5064148;28;20104;-55
2021/09/23 07:51:29;;;;;;;10.82;5.40;;;;;;;11.55;72.24;99436.19;5065001;28;20032;-64
2021/09/23 07:53:54;;;;;;;9.35;5.78;;;;;;;11.77;72.72;99459.22;5056756;28;20025;-65
2021/09/23 07:56:20;;;;;;;9.38;5.40;;;;;;;11.78;72.50;99452.00;5067530;28;20055;-64
2021/09/23 07:58:45;;;;;;;7.88;5.78;;;;;;;11.85;71.86;99460.34;5057178;28;20109;-66
2021/09/23 08:01:20;;;;;;;8.25;5.75;;;;;;;11.73;72.34;99440.84;5044690;28;20056;-65
2021/09/23 08:03:46;;;;;;;9.27;5.32;;;;;;;11.87;73.06;99461.91;5064912;28;20064;-65
2021/09/23 08:06:11;;;;;;;8.00;6.05;;;;;;;11.98;72.17;99465.41;5055572;28;20057;-66
2021/09/23 08:08:37;;;;;;;9.20;6.28;;;;;;;11.98;71.90;99457.38;5049347;28;20037;-64
2021/09/23 08:11:02;;;;;;;10.63;6.00;;;;;;;11.94;71.85;99453.28;5043834;28;20053;-66
2021/09/23 08:13:28;;;;;;;12.57;6.50;;;;;;;11.86;72.20;99446.81;5042984;28;20021;-65
2021/09/23 08:15:54;;;;;;;10.20;5.60;;;;;;;11.89;72.71;99457.25;5054095;28;20028;-66
2021/09/23 08:18:20;;;;;;;8.90;5.60;;;;;;;11.94;74.09;99447.91;5050510;28;20029;-64
2021/09/23 08:20:49;;;;;;;8.65;5.63;;;;;;;12.03;73.60;99441.72;5039854;28;20082;-64
2021/09/23 08:23:15;;;;;;;12.32;6.40;;;;;;;12.14;73.80;99438.03;5061735;28;20037;-64
2021/09/23 08:25:41;;;;;;;12.45;6.43;;;;;;;12.20;73.05;99434.78;5064256;28;20024;-66
2021/09/23 08:28:07;;;;;;;12.23;6.07;;;;;;;12.27;72.88;99435.91;5054973;28;20043;-65
2021/09/23 08:30:33;;;;;;;12.55;6.10;;;;;;;12.39;72.82;99428.53;5066339;28;20031;-65
2021/09/23 08:32:59;;;;;;;9.65;5.82;;;;;;;12.29;72.54;99396.34;5058454;28;20020;-64
2021/09/23 08:35:24;;;;;;;6.88;4.93;;;;;;;12.48;72.27;99416.06;5070735;28;20033;-66
2021/09/23 08:37:50;;;;;;;7.35;5.38;;;;;;;12.56;72.24;99431.47;5038221;28;20037;-65
2021/09/23 08:40:15;;;;;;;8.40;5.25;;;;;;;12.58;72.52;99421.41;5068323;28;20028;-66
2021/09/23 08:42:45;;;;;;;7.28;4.72;;;;;;;12.70;72.14;99428.28;5057831;28;20033;-66
2021/09/23 08:45:13;;;;;;;9.65;4.55;;;;;;;12.83;71.95;99425.25;5061773;28;20032;-65
2021/09/23 08:47:41;;;;;;;8.48;4.13;;;;;;;13.04;71.64;99421.47;5040144;28;20148;-64
2021/09/23 08:50:13;;;;;;;9.93;4.90;;;;;;;13.09;71.13;99419.19;5064457;28;20102;-66
2021/09/23 08:52:40;;;;;;;6.68;4.63;;;;;;;13.20;69.87;99421.69;5055729;28;20024;-66
2021/09/23 08:55:07;;;;;;;7.50;4.68;;;;;;;13.12;69.65;99413.50;5060978;28;20400;-66
2021/09/23 08:57:33;;;;;;;4.80;4.03;;;;;;;13.12;69.01;99418.03;5059064;28;20136;-65
2021/09/23 09:00:08;;;;;;;5.45;3.95;;;;;;;13.18;70.15;99417.44;5036851;28;20032;-65
2021/09/23 09:02:33;;;;;;;6.38;4.57;;;;;;;13.17;69.15;99413.06;5039402;28;20047;-65
2021/09/23 09:04:59;;;;;;;6.78;4.65;;;;;;;13.17;70.04;99419.28;5062309;28;20465;-66
2021/09/23 09:07:28;;;;;;;7.57;4.30;;;;;;;13.20;69.42;99424.38;5050128;28;20489;-65
2021/09/23 09:10:20;;;;;;;5.07;4.00;;;;;;;13.31;69.89;99425.13;5061257;28;20041;-65
2021/09/23 09:12:46;;;;;;;5.28;4.40;;;;;;;13.18;69.11;99414.75;5042806;28;20052;-66
2021/09/23 09:15:12;;;;;;;6.85;4.60;;;;;;;13.15;68.89;99405.16;5043254;28;20029;-65
2021/09/23 09:17:38;;;;;;;5.68;3.90;;;;;;;13.28;68.25;99414.69;5063997;28;20059;-66
2021/09/23 09:20:06;;;;;;;8.05;4.68;;;;;;;13.23;67.61;99395.50;5052641;28;20029;-66
2021/09/23 09:22:34;;;;;;;5.15;4.65;;;;;;;13.29;67.43;99419.06;5048441;28;20362;-65
2021/09/23 09:25:08;;;;;;;5.88;4.95;;;;;;;13.28;67.92;99412.00;5058209;28;20024;-65
2021/09/23 09:27:49;;;;;;;6.43;5.28;;;;;;;13.23;67.75;99412.44;5057970;28;20036;-64
2021/09/23 09:30:22;;;;;;;8.77;5.90;;;;;;;13.33;67.00;99413.25;5065695;28;20483;-67
2021/09/23 09:32:59;;;;;;;9.25;5.90;;;;;;;13.29;67.27;99413.69;5052114;28;20115;-65
2021/09/23 09:35:34;;;;;;;8.10;6.50;;;;;;;13.22;67.49;99413.44;5035144;28;20033;-65
2021/09/23 09:38:01;;;;;;;;;;;;;;;13.54;67.65;99409.44;5045355;28;20071;-64
2021/09/23 09:40:32;;;;;;;7.28;5.90;;;;;;;13.42;66.98;99407.94;5036366;28;19912;-65
2021/09/23 09:43:10;;;;;;;7.45;6.47;;;;;;;13.39;67.65;99402.88;5061002;28;20040;-66
2021/09/23 09:45:36;;;;;;;8.77;7.70;;;;;;;13.43;68.46;99404.28;5044738;28;20028;-65
2021/09/23 09:48:03;;;;;;;11.63;7.32;;;;;;;13.42;68.05;99402.56;5045855;28;20044;-67
2021/09/23 09:50:34;;;;;;;10.73;8.38;;;;;;;13.46;68.78;99403.97;5065340;28;20025;-64
2021/09/23 09:53:03;;;;;;;9.90;7.40;;;;;;;13.50;68.57;99405.34;5057379;28;20025;-65
2021/09/23 09:55:32;;;;;;;10.75;7.65;;;;;;;13.55;69.31;99397.69;5058349;28;20063;-65
2021/09/23 09:57:58;;;;;;;8.85;7.95;;;;;;;13.72;67.49;99392.44;5048152;28;20083;-64
2021/09/23 10:00:26;;;;;;;10.00;8.30;;;;;;;13.96;67.32;99396.31;5052415;28;20090;-65
2021/09/23 10:02:52;;;;;;;9.38;8.35;;;;;;;14.25;65.55;99382.56;5045356;28;20036;-64
2021/09/23 10:05:19;;;;;;;8.38;7.57;;;;;;;14.48;64.76;99387.41;5058573;28;20040;-65
2021/09/23 10:07:47;;;;;;;14.30;7.50;;;;;;;14.74;63.74;99373.94;5054206;28;20086;-64
2021/09/23 10:10:21;;;;;;;8.30;7.43;;;;;;;15.16;63.29;99382.16;5067193;28;20040;-64
2021/09/23 10:12:49;;;;;;;9.57;7.65;;;;;;;15.31;62.33;99368.88;5038397;28;20036;-63
2021/09/23 10:15:18;;;;;;;8.02;7.07;;;;;;;15.47;61.42;99377.00;5041616;28;20064;-66
2021/09/23 10:17:48;;;;;;;12.43;7.88;;;;;;;15.48;60.94;99377.84;5049383;28;20496;-64
2021/09/23 10:20:19;;;;;;;8.75;7.68;;;;;;;15.54;61.29;99382.56;5041608;28;20135;-66
2021/09/23 10:22:44;;;;;;;9.25;7.85;;;;;;;15.47;60.18;99379.69;5052754;28;20070;-66
2021/09/23 10:25:14;;;;;;;13.77;9.05;;;;;;;15.46;59.90;99375.31;5040714;28;20057;-65
2021/09/23 10:28:00;;;;;;;12.00;8.90;;;;;;;15.23;60.44;99364.31;5053004;28;20072;-66
2021/09/23 10:30:32;;;;;;;16.92;9.65;;;;;;;15.06;61.82;99371.50;5065575;28;20037;-66
2021/09/23 10:33:00;;;;;;;13.90;10.30;;;;;;;14.75;62.82;99369.38;5054372;28;20029;-65
2021/09/23 10:35:26;;;;;;;15.02;11.13;;;;;;;14.57;63.07;99359.50;5068433;28;20444;-66
2021/09/23 10:37:56;;;;;;;21.77;13.00;;;;;;;14.55;63.53;99369.59;5053741;28;20029;-65
2021/09/23 10:40:22;;;;;;;20.60;12.90;;;;;;;14.46;63.63;99360.63;5066517;28;20033;-66
2021/09/23 10:42:51;;;;;;;21.15;12.85;;;;;;;14.43;63.21;99352.06;5056440;28;20440;-65
2021/09/23 10:45:17;;;;;;;17.77;12.27;;;;;;;14.57;62.60;99364.91;5041165;28;20025;-66
2021/09/23 10:47:49;;;;;;;20.83;13.18;;;;;;;14.68;62.95;99354.84;5062861;28;20058;-66
2021/09/23 10:50:23;;;;;;;24.40;12.45;;;;;;;14.74;62.81;99355.09;5055725;28;20060;-67
2021/09/23 10:52:50;;;;;;;21.92;12.25;;;;;;;14.80;61.96;99356.25;5067036;28;20057;-65
2021/09/23 10:55:16;;;;;;;23.05;13.02;;;;;;;14.77;61.51;99349.38;5062194;28;20032;-65
2021/09/23 10:57:43;;;;;;;19.73;13.57;;;;;;;14.82;61.39;99346.16;5059193;28;20036;-65
2021/09/23 11:00:10;;;;;;;21.38;12.75;;;;;;;15.06;61.00;99356.19;5069629;28;20480;-66
2021/09/23 11:02:36;;;;;;;19.42;13.00;;;;;;;15.30;59.94;99354.56;5056608;28;20849;-66
2021/09/23 11:05:05;;;;;;;23.40;12.88;;;;;;;15.63;59.59;99351.88;5064525;28;20032;-65
2021/09/23 11:07:33;;;;;;;18.80;12.13;;;;;;;15.96;58.47;99358.31;5064222;28;20143;-65
2021/09/23 11:10:15;;;;;;;12.77;9.40;;;;;;;16.31;57.31;99348.09;5064438;28;20067;-66
2021/09/23 11:12:43;;;;;;;13.07;9.23;;;;;;;16.29;55.80;99336.63;5044757;28;20032;-65
2021/09/23 11:15:11;;;;;;;14.50;9.77;;;;;;;16.34;55.67;99351.31;5045924;28;20087;-66
2021/09/23 11:17:38;;;;;;;11.55;9.50;;;;;;;16.31;54.83;99343.56;5065410;28;20038;-66
2021/09/23 11:20:13;;;;;;;16.02;10.10;;;;;;;16.36;55.74;99343.88;5054770;28;20072;-67
2021/09/23 11:22:44;;;;;;;15.27;10.17;;;;;;;16.34;56.32;99343.22;5066486;28;20036;-66
2021/09/23 11:25:16;;;;;;;13.48;9.43;;;;;;;16.29;55.45;99340.19;5060797;28;20016;-65
2021/09/23 11:27:43;;;;;;;14.27;9.55;;;;;;;16.12;55.20;99336.66;5058315;28;20108;-65
2021/09/23 11:30:12;;;;;;;13.77;9.23;;;;;;;16.01;56.38;99340.56;5067213;28;20024;-66